createdAt,value
2023-04-07T00:00:04.022Z,3.80
2023-04-07T00:02:38.403Z,5.30
2023-04-07T00:05:05.881Z,6.33
2023-04-07T00:07:33.848Z,6.67
2023-04-07T00:10:04.135Z,7.30
2023-04-07T00:12:30.725Z,6.30
2023-04-07T00:14:57.282Z,7.20
2023-04-07T00:17:23.918Z,6.97
2023-04-07T00:19:50.817Z,6.47
2023-04-07T00:22:18.151Z,6.50
2023-04-07T00:24:44.767Z,5.00
2023-04-07T00:27:11.634Z,5.30
2023-04-07T00:29:38.222Z,6.07
2023-04-07T00:32:04.875Z,6.20
2023-04-07T00:34:31.890Z,5.60
2023-04-07T00:36:58.541Z,5.60
2023-04-07T00:39:27.489Z,5.60
2023-04-07T00:41:54.271Z,6.20
2023-04-07T00:44:21.466Z,6.53
2023-04-07T00:46:48.829Z,5.60
2023-04-07T00:49:17.947Z,6.10
2023-04-07T00:51:46.682Z,6.50
2023-04-07T00:54:13.493Z,8.70
2023-04-07T00:56:42.452Z,11.93
2023-04-07T00:59:10.211Z,9.00
2023-04-07T01:01:47.927Z,10.83
2023-04-07T01:04:28.845Z,8.53
2023-04-07T01:07:01.658Z,8.83
2023-04-07T01:09:57.805Z,7.03
2023-04-07T01:12:55.097Z,8.30
2023-04-07T01:15:27.519Z,7.03
2023-04-07T01:18:07.591Z,8.53
2023-04-07T01:20:36.190Z,7.20
2023-04-07T01:23:07.069Z,6.67
2023-04-07T01:26:04.740Z,7.83
2023-04-07T01:28:49.567Z,5.77
2023-04-07T01:31:17.288Z,6.03
2023-04-07T01:33:49.416Z,6.80
2023-04-07T01:36:17.205Z,6.00
2023-04-07T01:38:46.073Z,6.40
2023-04-07T01:41:15.976Z,6.10
2023-04-07T01:43:44.534Z,6.70
2023-04-07T01:46:11.832Z,6.10
2023-04-07T01:48:40.347Z,6.10
2023-04-07T01:51:07.874Z,6.00
2023-04-07T01:53:37.882Z,8.93
2023-04-07T01:56:05.737Z,8.60
2023-04-07T01:58:34.298Z,7.13
2023-04-07T02:01:02.421Z,8.87
2023-04-07T02:03:37.946Z,7.00
2023-04-07T02:06:10.451Z,7.27
2023-04-07T02:08:46.610Z,5.87
2023-04-07T02:11:14.588Z,5.93
2023-04-07T02:13:43.501Z,5.27
2023-04-07T02:16:12.729Z,5.10
2023-04-07T02:18:40.624Z,4.80
2023-04-07T02:21:08.909Z,5.20
2023-04-07T02:23:36.342Z,4.53
2023-04-07T02:26:03.053Z,4.47
2023-04-07T02:28:29.679Z,5.47
2023-04-07T02:30:56.307Z,4.93
2023-04-07T02:33:23.151Z,4.70
2023-04-07T02:35:50.727Z,4.70
2023-04-07T02:38:17.339Z,4.87
2023-04-07T02:40:43.907Z,4.83
2023-04-07T02:43:10.784Z,4.77
2023-04-07T02:45:37.408Z,4.40
2023-04-07T02:48:04.110Z,4.87
2023-04-07T02:50:30.742Z,5.43
2023-04-07T02:52:57.355Z,5.63
2023-04-07T02:55:23.982Z,4.77
2023-04-07T02:57:50.723Z,5.13
2023-04-07T03:00:35.931Z,5.27
2023-04-07T03:03:10.473Z,6.20
2023-04-07T03:05:40.374Z,6.23
2023-04-07T03:08:09.190Z,4.67
2023-04-07T03:10:36.522Z,5.67
2023-04-07T03:13:03.487Z,5.10
2023-04-07T03:15:31.308Z,4.90
2023-04-07T03:17:58.097Z,5.37
2023-04-07T03:20:24.931Z,4.93
2023-04-07T03:22:51.572Z,6.37
2023-04-07T03:25:26.709Z,5.07
2023-04-07T03:27:54.001Z,5.27
2023-04-07T03:30:21.654Z,7.10
2023-04-07T03:32:48.351Z,6.30
2023-04-07T03:35:15.329Z,6.70
2023-04-07T03:37:44.143Z,5.80
2023-04-07T03:40:15.347Z,6.40
2023-04-07T03:42:42.041Z,6.50
2023-04-07T03:45:11.353Z,6.70
2023-04-07T03:47:42.656Z,6.67
2023-04-07T03:50:10.402Z,7.00
2023-04-07T03:52:47.374Z,7.13
2023-04-07T03:55:23.047Z,5.23
2023-04-07T03:57:53.638Z,5.40
2023-04-07T04:00:20.776Z,5.10
2023-04-07T04:03:02.511Z,5.57
2023-04-07T04:05:29.356Z,4.80
2023-04-07T04:07:56.591Z,5.20
2023-04-07T04:10:23.461Z,6.00
2023-04-07T04:12:52.768Z,5.70
2023-04-07T04:15:19.547Z,5.27
2023-04-07T04:17:46.884Z,4.77
2023-04-07T04:20:14.564Z,5.37
2023-04-07T04:22:43.458Z,6.00
2023-04-07T04:25:11.226Z,5.90
2023-04-07T04:27:39.508Z,4.60
2023-04-07T04:30:14.608Z,5.30
2023-04-07T04:32:51.346Z,5.53
2023-04-07T04:35:23.132Z,5.50
2023-04-07T04:38:02.965Z,5.37
2023-04-07T04:40:30.369Z,5.50
2023-04-07T04:42:57.185Z,5.90
2023-04-07T04:45:25.053Z,5.30
2023-04-07T04:47:51.793Z,5.50
2023-04-07T04:50:18.587Z,5.80
2023-04-07T04:52:46.659Z,5.53
2023-04-07T04:55:19.649Z,5.73
2023-04-07T04:57:46.866Z,7.50
2023-04-07T05:00:19.213Z,7.00
2023-04-07T05:02:48.994Z,7.20
2023-04-07T05:05:16.135Z,7.60
2023-04-07T05:07:43.608Z,8.57
2023-04-07T05:10:13.123Z,6.73
2023-04-07T05:12:46.195Z,7.20
2023-04-07T05:15:12.852Z,8.07
2023-04-07T05:17:40.131Z,8.63
2023-04-07T05:20:10.899Z,8.07
2023-04-07T05:22:41.417Z,8.60
2023-04-07T05:25:11.878Z,7.83
2023-04-07T05:27:41.066Z,8.00
2023-04-07T05:30:13.022Z,8.93
2023-04-07T05:32:40.050Z,6.83
2023-04-07T05:35:15.472Z,6.67
2023-04-07T05:37:49.808Z,7.50
2023-04-07T05:40:16.600Z,8.20
2023-04-07T05:42:44.259Z,7.50
2023-04-07T05:45:11.548Z,8.30
2023-04-07T05:47:41.478Z,9.77
2023-04-07T05:50:12.230Z,9.53
2023-04-07T05:52:41.199Z,8.00
2023-04-07T05:55:19.042Z,8.50
2023-04-07T05:57:46.138Z,9.30
2023-04-07T06:00:14.247Z,8.47
2023-04-07T06:02:41.205Z,10.17
2023-04-07T06:05:13.747Z,9.30
2023-04-07T06:07:40.696Z,8.67
2023-04-07T06:10:08.712Z,9.60
2023-04-07T06:12:35.488Z,8.73
2023-04-07T06:15:02.227Z,8.60
2023-04-07T06:17:29.039Z,9.53
2023-04-07T06:19:55.681Z,9.97
2023-04-07T06:22:22.325Z,8.20
2023-04-07T06:24:48.918Z,8.77
2023-04-07T06:27:16.409Z,8.40
2023-04-07T06:29:43.101Z,8.83
2023-04-07T06:32:09.779Z,11.50
2023-04-07T06:34:36.448Z,9.33
2023-04-07T06:37:03.816Z,10.87
2023-04-07T06:39:30.685Z,9.70
2023-04-07T06:41:57.798Z,10.07
2023-04-07T06:44:24.506Z,8.50
2023-04-07T06:46:53.266Z,9.13
2023-04-07T06:49:20.105Z,9.67
2023-04-07T06:51:46.789Z,10.23
2023-04-07T06:54:14.746Z,43.40
2023-04-07T06:56:42.904Z,9.90
2023-04-07T06:59:09.970Z,9.20
2023-04-07T07:01:37.830Z,8.00
2023-04-07T07:04:06.427Z,8.07
2023-04-07T07:06:33.249Z,9.60
2023-04-07T07:09:02.681Z,9.50
2023-04-07T07:11:29.382Z,9.50
2023-04-07T07:13:56.056Z,9.30
2023-04-07T07:16:24.133Z,9.10
2023-04-07T07:18:51.951Z,9.60
2023-04-07T07:21:19.332Z,8.73
2023-04-07T07:23:46.214Z,9.40
2023-04-07T07:26:13.011Z,9.93
2023-04-07T07:28:39.627Z,9.40
2023-04-07T07:31:13.533Z,9.20
2023-04-07T07:33:41.401Z,9.40
2023-04-07T07:36:08.639Z,9.13
2023-04-07T07:38:37.071Z,9.33
2023-04-07T07:41:04.594Z,8.87
2023-04-07T07:43:31.270Z,9.33
2023-04-07T07:45:58.000Z,8.70
2023-04-07T07:48:24.696Z,8.67
2023-04-07T07:50:52.378Z,8.67
2023-04-07T07:53:19.158Z,9.07
2023-04-07T07:55:47.155Z,7.80
2023-04-07T07:58:13.950Z,8.97
2023-04-07T08:00:40.864Z,8.20
2023-04-07T08:03:07.858Z,8.23
2023-04-07T08:05:34.729Z,8.63
2023-04-07T08:08:01.643Z,9.73
2023-04-07T08:10:28.339Z,8.37
2023-04-07T08:12:54.976Z,9.80
2023-04-07T08:15:21.909Z,9.37
2023-04-07T08:17:48.538Z,9.27
2023-04-07T08:20:16.352Z,8.90
2023-04-07T08:22:43.088Z,9.07
2023-04-07T08:25:10.676Z,7.80
2023-04-07T08:27:37.361Z,9.57
2023-04-07T08:30:08.829Z,8.60
2023-04-07T08:32:36.718Z,9.67
2023-04-07T08:35:03.586Z,8.60
2023-04-07T08:37:31.481Z,9.97
2023-04-07T08:39:58.127Z,9.43
2023-04-07T08:42:30.314Z,8.40
2023-04-07T08:45:01.309Z,8.33
2023-04-07T08:47:30.855Z,8.23
2023-04-07T08:50:01.514Z,9.20
2023-04-07T08:52:54.161Z,9.63
2023-04-07T08:55:21.151Z,9.70
2023-04-07T08:57:48.358Z,10.07
2023-04-07T09:00:16.028Z,11.13
2023-04-07T09:02:48.955Z,11.63
2023-04-07T09:05:15.869Z,11.17
2023-04-07T09:07:45.376Z,11.77
2023-04-07T09:10:12.174Z,10.13
2023-04-07T09:12:39.072Z,10.30
2023-04-07T09:15:07.542Z,10.03
2023-04-07T09:17:34.181Z,10.60
2023-04-07T09:20:01.933Z,9.80
2023-04-07T09:22:39.285Z,10.87
2023-04-07T09:25:13.475Z,10.47
2023-04-07T09:27:40.135Z,10.47
2023-04-07T09:30:15.806Z,9.40
2023-04-07T09:32:42.698Z,10.07
2023-04-07T09:35:10.032Z,10.37
2023-04-07T09:37:37.458Z,10.17
2023-04-07T09:40:04.805Z,10.50
2023-04-07T09:42:36.034Z,10.33
2023-04-07T09:45:02.905Z,10.67
2023-04-07T09:47:31.679Z,10.03
2023-04-07T09:49:59.488Z,10.53
2023-04-07T09:52:49.601Z,11.03
2023-04-07T09:55:17.339Z,10.40
2023-04-07T09:57:45.376Z,10.27
2023-04-07T10:00:12.876Z,9.90
2023-04-07T10:02:43.722Z,9.83
2023-04-07T10:05:11.058Z,10.27
2023-04-07T10:07:37.814Z,9.90
2023-04-07T10:10:05.072Z,10.40
2023-04-07T10:12:34.427Z,9.43
2023-04-07T10:15:02.237Z,9.40
2023-04-07T10:17:29.388Z,10.10
2023-04-07T10:19:58.747Z,10.90
2023-04-07T10:22:27.864Z,10.73
2023-04-07T10:25:00.692Z,9.90
2023-04-07T10:27:37.132Z,9.87
2023-04-07T10:30:11.852Z,11.43
2023-04-07T10:32:49.500Z,12.07
2023-04-07T10:35:17.258Z,11.80
2023-04-07T10:38:07.210Z,9.77
2023-04-07T10:40:35.471Z,10.80
2023-04-07T10:43:02.620Z,9.87
2023-04-07T10:45:48.530Z,11.13
2023-04-07T10:48:17.428Z,11.20
2023-04-07T10:51:07.962Z,10.70
2023-04-07T10:53:35.088Z,11.03
2023-04-07T10:56:02.197Z,11.30
2023-04-07T10:58:30.843Z,10.70
2023-04-07T11:00:57.608Z,10.77
2023-04-07T11:03:25.664Z,9.60
2023-04-07T11:05:52.578Z,9.23
2023-04-07T11:08:39.251Z,10.70
2023-04-07T11:11:09.305Z,11.50
2023-04-07T11:13:46.546Z,9.60
2023-04-07T11:16:14.302Z,10.67
2023-04-07T11:18:41.850Z,11.47
2023-04-07T11:21:09.358Z,11.20
2023-04-07T11:23:44.001Z,10.60
2023-04-07T11:26:13.022Z,11.60
2023-04-07T11:28:51.701Z,11.10
2023-04-07T11:31:26.247Z,11.00
2023-04-07T11:33:58.864Z,11.00
2023-04-07T11:36:38.691Z,13.17
2023-04-07T11:39:05.970Z,12.40
2023-04-07T11:41:33.880Z,10.73
2023-04-07T11:44:05.438Z,10.13
2023-04-07T11:46:32.206Z,10.93
2023-04-07T11:49:15.579Z,11.23
2023-04-07T11:51:44.425Z,11.20
2023-04-07T11:54:11.488Z,12.57
2023-04-07T11:56:45.802Z,11.70
2023-04-07T11:59:21.142Z,10.90
2023-04-07T12:01:49.470Z,11.77
2023-04-07T12:04:17.281Z,11.00
2023-04-07T12:06:47.054Z,12.30
2023-04-07T12:09:27.332Z,10.37
2023-04-07T12:11:54.169Z,10.60
2023-04-07T12:14:20.961Z,11.03
2023-04-07T12:16:47.645Z,11.90
2023-04-07T12:19:14.391Z,10.50
2023-04-07T12:21:41.074Z,10.50
2023-04-07T12:24:07.782Z,10.73
2023-04-07T12:26:34.483Z,11.10
2023-04-07T12:29:05.239Z,9.50
2023-04-07T12:31:32.943Z,9.20
2023-04-07T12:33:59.765Z,10.43
2023-04-07T12:36:29.691Z,9.83
2023-04-07T12:38:57.168Z,10.00
2023-04-07T12:41:25.069Z,9.30
2023-04-07T12:43:52.351Z,10.47
2023-04-07T12:46:20.043Z,9.07
2023-04-07T12:48:48.004Z,9.50
2023-04-07T12:51:14.924Z,9.27
2023-04-07T12:53:41.836Z,9.60
2023-04-07T12:56:08.820Z,11.17
2023-04-07T12:58:35.607Z,10.40
2023-04-07T13:01:02.242Z,9.63
2023-04-07T13:03:29.154Z,9.40
2023-04-07T13:05:56.174Z,9.00
2023-04-07T13:08:22.773Z,10.40
2023-04-07T13:10:49.491Z,10.13
2023-04-07T13:13:16.439Z,9.80
2023-04-07T13:15:43.068Z,9.73
2023-04-07T13:18:09.754Z,9.17
2023-04-07T13:20:36.528Z,8.40
2023-04-07T13:23:08.102Z,9.73
2023-04-07T13:25:40.192Z,8.43
2023-04-07T13:28:06.943Z,9.43
2023-04-07T13:30:35.211Z,9.13
2023-04-07T13:33:03.562Z,8.20
2023-04-07T13:35:35.494Z,8.50
2023-04-07T13:38:03.892Z,8.80
2023-04-07T13:40:31.123Z,9.10
2023-04-07T13:42:58.429Z,7.70
2023-04-07T13:45:25.081Z,9.70
2023-04-07T13:47:51.989Z,8.20
2023-04-07T13:50:22.066Z,8.50
2023-04-07T13:52:48.845Z,8.50
2023-04-07T13:55:16.969Z,8.13
2023-04-07T13:57:43.722Z,9.57
2023-04-07T14:00:11.302Z,8.43
2023-04-07T14:02:38.710Z,8.93
2023-04-07T14:05:05.943Z,10.23
2023-04-07T14:07:35.087Z,8.87
2023-04-07T14:10:04.561Z,8.00
2023-04-07T14:12:31.589Z,9.53
2023-04-07T14:15:18.630Z,8.03
2023-04-07T14:17:45.508Z,9.80
2023-04-07T14:20:12.355Z,8.60
2023-04-07T14:22:39.040Z,8.70
2023-04-07T14:25:08.939Z,9.47
2023-04-07T14:27:36.190Z,8.67
2023-04-07T14:30:03.456Z,9.10
2023-04-07T14:32:30.283Z,8.70
2023-04-07T14:34:59.233Z,9.23
2023-04-07T14:37:26.681Z,9.60
2023-04-07T14:40:01.881Z,9.63
2023-04-07T14:42:30.847Z,9.27
2023-04-07T14:44:59.112Z,8.47
2023-04-07T14:47:26.645Z,9.40
2023-04-07T14:49:53.810Z,8.73
2023-04-07T14:52:22.217Z,9.10
2023-04-07T14:54:49.100Z,8.53
2023-04-07T14:57:16.770Z,9.50
2023-04-07T14:59:44.113Z,7.77
2023-04-07T15:02:11.433Z,8.20
2023-04-07T15:04:38.650Z,8.00
2023-04-07T15:07:06.154Z,8.30
2023-04-07T15:09:33.138Z,8.13
2023-04-07T15:12:00.853Z,7.63
2023-04-07T15:14:28.123Z,8.17
2023-04-07T15:16:54.996Z,8.00
2023-04-07T15:19:21.829Z,7.27
2023-04-07T15:21:48.618Z,6.93
2023-04-07T15:24:16.434Z,7.03
2023-04-07T15:26:43.805Z,6.23
2023-04-07T15:29:10.823Z,6.03
2023-04-07T15:31:37.594Z,6.30
2023-04-07T15:34:04.656Z,6.90
2023-04-07T15:36:31.725Z,6.87
2023-04-07T15:39:04.534Z,6.37
2023-04-07T15:41:31.648Z,6.60
2023-04-07T15:44:04.452Z,5.40
2023-04-07T15:46:34.273Z,5.80
2023-04-07T15:49:01.078Z,7.33
2023-04-07T15:51:29.674Z,7.27
2023-04-07T15:53:56.623Z,6.30
2023-04-07T15:56:24.970Z,6.60
2023-04-07T15:58:52.072Z,6.60
2023-04-07T16:01:26.083Z,6.00
2023-04-07T16:03:53.096Z,6.07
2023-04-07T16:06:20.146Z,6.57
2023-04-07T16:08:46.813Z,6.80
2023-04-07T16:11:13.548Z,6.80
2023-04-07T16:13:40.353Z,6.83
2023-04-07T16:16:07.836Z,8.00
2023-04-07T16:18:34.669Z,9.00
2023-04-07T16:21:03.705Z,7.87
2023-04-07T16:23:31.246Z,7.03
2023-04-07T16:25:57.931Z,7.97
2023-04-07T16:28:24.612Z,7.43
2023-04-07T16:30:51.258Z,7.10
2023-04-07T16:33:17.911Z,7.20
2023-04-07T16:35:44.763Z,6.63
2023-04-07T16:38:12.134Z,6.50
2023-04-07T16:40:38.754Z,7.40
2023-04-07T16:43:05.484Z,6.67
2023-04-07T16:45:32.181Z,7.77
2023-04-07T16:47:58.990Z,7.17
2023-04-07T16:50:25.716Z,7.10
2023-04-07T16:52:52.815Z,8.37
2023-04-07T16:55:19.524Z,8.27
2023-04-07T16:57:46.381Z,7.10
2023-04-07T17:00:13.441Z,8.30
2023-04-07T17:02:40.288Z,8.60
2023-04-07T17:05:07.406Z,8.23
2023-04-07T17:07:34.082Z,7.80
2023-04-07T17:10:01.281Z,7.60
2023-04-07T17:12:28.107Z,6.63
2023-04-07T17:14:54.745Z,7.97
2023-04-07T17:17:21.433Z,7.43
2023-04-07T17:19:48.224Z,7.73
2023-04-07T17:22:14.909Z,7.90
2023-04-07T17:24:41.569Z,7.47
2023-04-07T17:27:08.498Z,7.90
2023-04-07T17:29:35.210Z,7.47
2023-04-07T17:32:02.397Z,8.23
2023-04-07T17:34:29.046Z,7.80
2023-04-07T17:36:56.070Z,7.23
2023-04-07T17:39:22.868Z,6.33
2023-04-07T17:41:49.534Z,7.57
2023-04-07T17:44:16.183Z,9.07
2023-04-07T17:46:43.086Z,7.67
2023-04-07T17:49:10.054Z,7.37
2023-04-07T17:51:37.279Z,7.50
2023-04-07T17:54:04.008Z,6.70
2023-04-07T17:56:30.812Z,8.17
2023-04-07T17:58:57.479Z,7.43
2023-04-07T18:01:24.190Z,7.67
2023-04-07T18:03:52.956Z,7.60
2023-04-07T18:06:20.102Z,8.20
2023-04-07T18:08:47.971Z,8.83
2023-04-07T18:11:15.605Z,8.83
2023-04-07T18:13:42.328Z,7.53
2023-04-07T18:16:10.447Z,8.30
2023-04-07T18:18:40.493Z,7.27
2023-04-07T18:21:07.252Z,8.10
2023-04-07T18:23:34.678Z,6.77
2023-04-07T18:26:05.293Z,8.33
2023-04-07T18:28:32.363Z,8.03
2023-04-07T18:31:08.553Z,8.50
2023-04-07T18:33:36.305Z,7.20
2023-04-07T18:36:05.027Z,7.07
2023-04-07T18:38:31.768Z,7.33
2023-04-07T18:40:59.282Z,7.60
2023-04-07T18:43:26.539Z,8.33
2023-04-07T18:45:53.413Z,7.90
2023-04-07T18:48:21.556Z,16.60
2023-04-07T18:50:52.656Z,11.23
2023-04-07T18:53:23.109Z,19.00
2023-04-07T18:55:50.404Z,16.00
2023-04-07T18:58:17.155Z,15.10
2023-04-07T19:00:44.573Z,11.40
2023-04-07T19:03:11.833Z,10.53
2023-04-07T19:05:42.363Z,11.60
2023-04-07T19:08:09.576Z,12.53
2023-04-07T19:10:36.341Z,13.23
2023-04-07T19:13:03.882Z,10.97
2023-04-07T19:15:38.437Z,11.60
2023-04-07T19:18:05.231Z,13.90
2023-04-07T19:20:33.760Z,10.67
2023-04-07T19:23:01.856Z,11.40
2023-04-07T19:25:28.751Z,11.03
2023-04-07T19:27:55.696Z,10.97
2023-04-07T19:30:22.483Z,9.60
2023-04-07T19:32:49.319Z,10.10
2023-04-07T19:35:39.044Z,10.47
2023-04-07T19:38:06.212Z,10.10
2023-04-07T19:40:33.492Z,9.43
2023-04-07T19:43:00.468Z,9.80
2023-04-07T19:45:27.244Z,10.20
2023-04-07T19:47:54.561Z,9.30
2023-04-07T19:50:21.412Z,9.80
2023-04-07T19:52:48.147Z,7.97
2023-04-07T19:55:15.357Z,7.53
2023-04-07T19:57:42.046Z,9.67
2023-04-07T20:00:31.042Z,7.43
2023-04-07T20:02:58.890Z,12.80
2023-04-07T20:05:26.238Z,10.83
2023-04-07T20:07:52.863Z,11.43
2023-04-07T20:10:19.516Z,14.30
2023-04-07T20:12:46.167Z,14.53
2023-04-07T20:15:12.944Z,15.23
2023-04-07T20:17:39.639Z,13.30
2023-04-07T20:20:07.103Z,12.33
2023-04-07T20:22:35.088Z,8.97
2023-04-07T20:25:04.889Z,12.47
2023-04-07T20:27:32.260Z,12.10
2023-04-07T20:29:59.040Z,13.13
2023-04-07T20:32:26.491Z,12.77
2023-04-07T20:34:53.706Z,19.03
2023-04-07T20:37:22.047Z,18.00
2023-04-07T20:39:49.012Z,11.20
2023-04-07T20:42:16.093Z,14.23
2023-04-07T20:44:42.842Z,8.77
2023-04-07T20:47:10.818Z,9.30
2023-04-07T20:49:39.637Z,9.77
2023-04-07T20:52:07.187Z,9.07
2023-04-07T20:54:35.377Z,8.77
2023-04-07T20:57:02.486Z,8.57
2023-04-07T20:59:30.224Z,9.73
2023-04-07T21:01:56.980Z,6.87
2023-04-07T21:04:24.476Z,7.23
2023-04-07T21:06:51.480Z,7.97
2023-04-07T21:09:18.225Z,9.00
2023-04-07T21:11:44.907Z,7.67
2023-04-07T21:14:11.744Z,8.47
2023-04-07T21:16:38.617Z,7.23
2023-04-07T21:19:06.341Z,8.87
2023-04-07T21:21:33.248Z,8.23
2023-04-07T21:24:00.005Z,7.30
2023-04-07T21:26:27.330Z,7.63
2023-04-07T21:31:22.489Z,8.13
2023-04-07T21:33:49.353Z,8.50
2023-04-07T21:36:16.297Z,7.40
2023-04-07T21:38:42.888Z,7.53
2023-04-07T21:41:09.745Z,8.00
2023-04-07T21:43:36.436Z,7.20
2023-04-07T21:46:03.186Z,8.37
2023-04-07T21:48:30.307Z,7.30
2023-04-07T21:50:57.213Z,9.17
2023-04-07T21:53:23.849Z,7.17
2023-04-07T21:55:50.558Z,7.77
2023-04-07T21:58:17.177Z,6.77
2023-04-07T22:00:43.848Z,7.60
2023-04-07T22:03:11.078Z,7.90
2023-04-07T22:05:38.396Z,8.13
2023-04-07T22:08:05.396Z,8.50
2023-04-07T22:10:32.001Z,7.70
2023-04-07T22:12:58.609Z,8.17
2023-04-07T22:15:25.440Z,8.50
2023-04-07T22:17:52.120Z,8.20
2023-04-07T22:20:19.308Z,6.73
2023-04-07T22:22:46.466Z,7.57
2023-04-07T22:25:13.132Z,7.27
2023-04-07T22:27:39.766Z,7.30
2023-04-07T22:30:09.971Z,7.80
2023-04-07T22:32:36.956Z,8.03
2023-04-07T22:35:03.843Z,7.60
2023-04-07T22:37:30.481Z,7.30
2023-04-07T22:39:57.113Z,7.90
2023-04-07T22:42:23.876Z,8.17
2023-04-07T22:44:50.624Z,8.60
2023-04-07T22:47:17.325Z,7.90
2023-04-07T22:49:44.088Z,7.53
2023-04-07T22:52:10.954Z,9.07
2023-04-07T22:54:37.689Z,8.50
2023-04-07T22:57:04.533Z,8.80
2023-04-07T22:59:31.776Z,9.40
2023-04-07T23:01:58.570Z,8.53
2023-04-07T23:04:25.630Z,7.77
2023-04-07T23:06:52.254Z,7.87
2023-04-07T23:09:19.390Z,9.53
2023-04-07T23:11:47.348Z,8.93
2023-04-07T23:14:14.603Z,8.50
2023-04-07T23:16:41.315Z,9.20
2023-04-07T23:19:11.635Z,11.20
2023-04-07T23:21:39.633Z,9.50
2023-04-07T23:24:06.300Z,9.47
2023-04-07T23:26:32.954Z,11.33
2023-04-07T23:28:59.646Z,11.70
2023-04-07T23:31:26.682Z,12.00
2023-04-07T23:33:53.336Z,10.27
2023-04-07T23:36:20.092Z,11.20
2023-04-07T23:38:46.825Z,11.10
2023-04-07T23:41:13.475Z,12.67
2023-04-07T23:43:40.251Z,11.57
2023-04-07T23:46:06.991Z,13.40
2023-04-07T23:48:33.662Z,10.77
2023-04-07T23:51:00.320Z,12.33
2023-04-07T23:53:27.076Z,12.00
2023-04-07T23:55:54.105Z,10.43
2023-04-07T23:58:20.959Z,10.47
